Time;durP1;ratioP1;P1;durP2;ratioP2;P2;SDS_P1;SDS_P2;PMS_P1;PMS_P2;Temp;Humidity;BMP_temperature;BMP_pressure;BME280_temperature;BME280_humidity;BME280_pressure;Samples;Min_cycle;Max_cycle;Signal;HPM_P1;HPM_P2
2022/10/04 00:01:49;;;;;;;15.93;7.27;;;13.40;99.90;;;;;;5039768;28;20221;-74
2022/10/04 00:04:18;;;;;;;12.93;6.80;;;13.40;99.90;;;;;;5036777;28;20228;-75
2022/10/04 00:06:50;;;;;;;13.10;6.77;;;13.30;99.90;;;;;;5037976;28;20205;-74
2022/10/04 00:09:29;;;;;;;11.33;6.57;;;13.30;99.90;;;;;;5037847;28;20292;-75
2022/10/04 00:11:58;;;;;;;10.70;5.87;;;13.30;99.90;;;;;;5018007;28;20209;-76
2022/10/04 00:14:29;;;;;;;18.53;7.57;;;13.30;99.90;;;;;;5044125;28;20201;-74
2022/10/04 00:16:58;;;;;;;13.43;6.10;;;13.30;99.90;;;;;;5018803;28;20225;-74
2022/10/04 00:19:49;;;;;;;12.87;5.83;;;13.30;99.90;;;;;;5037036;28;20650;-77
2022/10/04 00:22:36;;;;;;;15.87;6.27;;;13.30;99.90;;;;;;5036064;28;20237;-74
2022/10/04 00:25:06;;;;;;;8.60;6.00;;;13.30;99.90;;;;;;5041709;28;20229;-75
2022/10/04 00:27:37;;;;;;;12.43;5.73;;;13.20;99.90;;;;;;5017958;28;20539;-76
2022/10/04 00:30:05;;;;;;;14.53;6.10;;;13.20;99.90;;;;;;5042701;28;20209;-75
2022/10/04 00:32:40;;;;;;;14.30;5.70;;;13.20;99.90;;;;;;5037301;28;20225;-75
2022/10/04 00:35:23;;;;;;;10.60;5.77;;;13.20;99.90;;;;;;5019992;28;20335;-74
2022/10/04 00:37:58;;;;;;;13.10;5.90;;;13.20;99.90;;;;;;5039392;28;20256;-76
2022/10/04 00:40:32;;;;;;;15.40;6.13;;;13.20;99.90;;;;;;5035537;28;20956;-73
2022/10/04 00:43:25;;;;;;;12.27;6.57;;;13.20;99.90;;;;;;5039761;28;20738;-75
2022/10/04 00:45:59;;;;;;;11.57;5.97;;;13.20;99.90;;;;;;5035279;28;20627;-75
2022/10/04 00:48:34;;;;;;;12.97;6.07;;;13.20;99.90;;;;;;5034561;28;20236;-74
2022/10/04 00:51:12;;;;;;;15.57;7.10;;;13.20;99.90;;;;;;5036488;28;20505;-74
2022/10/04 00:53:57;;;;;;;12.83;6.63;;;13.20;99.90;;;;;;5025479;28;20569;-74
2022/10/04 00:56:51;;;;;;;13.00;6.17;;;13.20;99.90;;;;;;5035016;28;20209;-76
2022/10/04 00:59:27;;;;;;;15.03;5.73;;;13.20;99.90;;;;;;5036229;28;20238;-75
2022/10/04 01:02:06;;;;;;;11.80;5.40;;;13.20;99.90;;;;;;5034017;28;20242;-75
2022/10/04 01:04:53;;;;;;;15.63;6.27;;;13.20;99.90;;;;;;5043107;28;20248;-75
2022/10/04 01:07:29;;;;;;;8.03;5.40;;;13.20;99.90;;;;;;5014784;28;20590;-75
2022/10/04 01:10:01;;;;;;;10.23;5.40;;;13.20;99.90;;;;;;5033933;28;20205;-75
2022/10/04 01:13:06;;;;;;;12.57;6.30;;;13.20;99.90;;;;;;5041033;28;20214;-73
2022/10/04 01:15:52;;;;;;;8.47;5.57;;;13.20;99.90;;;;;;4938984;28;20281;-74
2022/10/04 01:18:19;;;;;;;17.47;5.73;;;13.20;99.90;;;;;;5025765;28;20212;-76
2022/10/04 01:21:19;;;;;;;12.00;6.10;;;13.20;99.90;;;;;;5031022;28;20206;-74
2022/10/04 01:23:58;;;;;;;12.50;6.23;;;13.20;99.90;;;;;;5040207;28;20312;-76
2022/10/04 01:26:28;;;;;;;12.80;6.73;;;13.20;99.90;;;;;;5037281;28;20666;-74
2022/10/04 01:29:06;;;;;;;11.90;6.03;;;13.20;99.90;;;;;;5036126;28;20205;-74
2022/10/04 01:31:36;;;;;;;14.83;6.00;;;13.20;99.90;;;;;;5019531;28;20217;-74
2022/10/04 01:34:04;;;;;;;13.43;6.77;;;13.20;99.90;;;;;;5037475;28;20189;-74
2022/10/04 01:36:35;;;;;;;11.43;7.30;;;13.10;99.90;;;;;;5037541;28;20205;-74
2022/10/04 01:39:03;;;;;;;10.17;6.40;;;13.10;99.90;;;;;;5035624;28;20567;-74
2022/10/04 01:41:43;;;;;;;12.30;6.60;;;13.10;99.90;;;;;;5035826;28;20226;-74
2022/10/04 01:44:22;;;;;;;13.63;6.67;;;13.10;99.90;;;;;;5036794;28;20300;-73
2022/10/04 01:46:55;;;;;;;15.43;7.80;;;13.10;99.90;;;;;;5023468;28;20314;-73
2022/10/04 01:49:29;;;;;;;13.10;7.23;;;13.00;99.90;;;;;;5036022;28;20221;-73
2022/10/04 01:52:06;;;;;;;20.73;7.47;;;13.00;99.90;;;;;;5039332;28;20196;-75
2022/10/04 01:54:37;;;;;;;15.37;7.40;;;13.00;99.90;;;;;;5034531;28;20222;-74
2022/10/04 01:57:14;;;;;;;15.90;7.70;;;12.90;99.90;;;;;;5037930;28;20233;-73
2022/10/04 01:59:51;;;;;;;15.97;7.10;;;12.80;99.90;;;;;;5036547;28;20304;-74
2022/10/04 02:02:29;;;;;;;19.90;7.93;;;12.80;99.90;;;;;;5028593;28;20237;-74
2022/10/04 02:04:58;;;;;;;15.00;7.13;;;12.80;99.90;;;;;;5038230;28;20291;-73
2022/10/04 02:07:30;;;;;;;14.17;8.03;;;12.70;99.90;;;;;;5008606;28;20211;-74
2022/10/04 02:10:03;;;;;;;17.90;7.50;;;12.70;99.90;;;;;;5015114;28;20202;-74
2022/10/04 02:12:32;;;;;;;15.60;7.37;;;12.70;99.90;;;;;;5036171;28;20213;-73
2022/10/04 02:15:04;;;;;;;14.67;7.23;;;12.60;99.90;;;;;;5018124;28;20205;-74
2022/10/04 02:17:37;;;;;;;20.23;8.57;;;12.60;99.90;;;;;;5035212;28;20221;-73
2022/10/04 02:20:12;;;;;;;15.13;8.13;;;12.60;99.90;;;;;;5004160;28;20240;-74
2022/10/04 02:22:40;;;;;;;17.07;8.23;;;12.50;99.90;;;;;;5035913;28;20826;-73
2022/10/04 02:25:08;;;;;;;15.03;8.20;;;12.50;99.90;;;;;;5038899;28;20197;-74
2022/10/04 02:27:35;;;;;;;15.03;8.00;;;12.50;99.90;;;;;;5015715;28;20263;-73
2022/10/04 02:30:05;;;;;;;15.40;8.53;;;12.50;99.90;;;;;;5033270;28;20316;-74
2022/10/04 02:35:20;;;;;;;15.93;8.33;;;12.40;99.90;;;;;;5038077;28;20591;-73
2022/10/04 02:37:53;;;;;;;18.10;8.37;;;12.30;99.90;;;;;;5040869;28;20679;-73
2022/10/04 02:40:29;;;;;;;11.83;7.43;;;12.30;99.90;;;;;;5034139;28;20213;-73
2022/10/04 02:42:56;;;;;;;18.33;8.23;;;12.30;99.90;;;;;;5017763;28;20225;-73
2022/10/04 02:45:39;;;;;;;15.57;8.53;;;12.20;99.90;;;;;;5036953;28;20245;-74
2022/10/04 02:48:19;;;;;;;15.93;9.20;;;12.10;99.90;;;;;;5032762;28;20216;-74
2022/10/04 02:50:51;;;;;;;15.33;8.43;;;12.10;99.90;;;;;;5035270;28;20296;-73
2022/10/04 02:53:28;;;;;;;21.93;10.50;;;12.20;99.90;;;;;;5033339;28;20254;-74
2022/10/04 02:55:56;;;;;;;19.60;10.73;;;12.00;99.90;;;;;;5036748;28;20653;-74
2022/10/04 02:58:25;;;;;;;21.77;9.53;;;11.90;99.90;;;;;;5035790;28;20679;-74
2022/10/04 03:01:00;;;;;;;19.13;10.40;;;11.90;99.90;;;;;;5040890;28;20217;-72
2022/10/04 03:03:36;;;;;;;20.40;10.70;;;11.90;99.90;;;;;;5033169;28;20286;-74
2022/10/04 03:06:10;;;;;;;18.00;9.73;;;11.90;99.90;;;;;;5032185;28;20209;-73
2022/10/04 03:08:50;;;;;;;23.20;10.33;;;11.80;99.90;;;;;;5018486;28;20271;-74
2022/10/04 03:11:21;;;;;;;16.17;10.60;;;11.80;99.90;;;;;;5013339;28;20569;-74
2022/10/04 03:13:52;;;;;;;19.43;11.33;;;11.80;99.90;;;;;;5033191;28;20662;-73
2022/10/04 03:16:22;;;;;;;18.67;11.60;;;11.80;99.90;;;;;;5017023;28;20243;-74
2022/10/04 03:18:52;;;;;;;18.57;12.03;;;11.80;99.90;;;;;;5018330;28;20209;-73
2022/10/04 03:21:21;;;;;;;22.03;12.20;;;11.80;99.90;;;;;;5034549;28;20208;-74
2022/10/04 03:23:50;;;;;;;20.93;11.73;;;11.80;99.90;;;;;;5033482;28;20281;-73
2022/10/04 03:26:28;;;;;;;28.30;12.50;;;11.90;99.90;;;;;;5037198;28;20234;-73
2022/10/04 03:28:56;;;;;;;20.60;12.13;;;11.80;99.90;;;;;;5016297;28;20213;-74
2022/10/04 03:31:26;;;;;;;23.23;12.23;;;11.80;99.90;;;;;;5037611;28;20217;-73
2022/10/04 03:33:56;;;;;;;21.63;12.97;;;11.80;99.90;;;;;;5036050;28;20268;-74
2022/10/04 03:36:25;;;;;;;22.67;13.50;;;11.80;99.90;;;;;;5036392;28;20298;-73
2022/10/04 03:38:55;;;;;;;26.10;14.23;;;11.80;99.90;;;;;;5032153;28;20223;-75
2022/10/04 03:41:24;;;;;;;24.93;13.83;;;11.70;99.90;;;;;;5040086;28;20201;-74
2022/10/04 03:43:53;;;;;;;22.43;13.67;;;11.70;99.90;;;;;;5037217;28;20286;-74
2022/10/04 03:46:22;;;;;;;23.47;12.97;;;11.70;99.90;;;;;;5038933;28;20300;-73
2022/10/04 03:48:52;;;;;;;21.07;13.93;;;11.60;99.90;;;;;;5039891;28;20243;-74
2022/10/04 03:51:21;;;;;;;24.90;13.13;;;11.60;99.90;;;;;;5033412;28;20320;-74
2022/10/04 03:53:52;;;;;;;20.07;13.57;;;11.50;99.90;;;;;;5032547;28;20750;-74
2022/10/04 03:56:26;;;;;;;20.90;13.83;;;11.50;99.90;;;;;;5020112;28;20219;-74
2022/10/04 03:58:54;;;;;;;22.57;15.40;;;11.50;99.90;;;;;;5038432;28;20201;-73
2022/10/04 04:01:41;;;;;;;22.80;15.40;;;11.50;99.90;;;;;;5032572;28;20320;-73
2022/10/04 04:04:15;;;;;;;26.33;14.43;;;11.40;99.90;;;;;;5029606;28;20221;-74
2022/10/04 04:07:02;;;;;;;31.93;15.27;;;11.30;99.90;;;;;;5033710;28;20205;-73
2022/10/04 04:09:49;;;;;;;23.30;14.13;;;11.30;99.90;;;;;;5029652;28;20229;-73
2022/10/04 04:12:19;;;;;;;30.30;15.77;;;11.20;99.90;;;;;;5029829;28;20208;-73
2022/10/04 04:14:50;;;;;;;26.90;16.03;;;11.20;99.90;;;;;;5021185;28;20334;-73
2022/10/04 04:17:26;;;;;;;27.53;14.70;;;11.10;99.90;;;;;;5038856;28;20661;-74
2022/10/04 04:19:56;;;;;;;28.10;16.87;;;11.10;99.90;;;;;;5037449;28;20741;-73
2022/10/04 04:22:26;;;;;;;23.87;14.47;;;11.10;99.90;;;;;;5035943;28;20237;-72
2022/10/04 04:24:53;;;;;;;29.30;16.50;;;11.10;99.90;;;;;;5019030;28;20215;-74
2022/10/04 04:27:23;;;;;;;29.87;15.97;;;11.00;99.90;;;;;;5024202;28;20207;-73
2022/10/04 04:29:57;;;;;;;29.37;16.63;;;11.00;99.90;;;;;;5024381;28;20195;-73
2022/10/04 04:32:30;;;;;;;29.03;15.00;;;11.00;99.90;;;;;;5018673;28;20264;-74
2022/10/04 04:35:05;;;;;;;20.90;14.00;;;10.90;99.90;;;;;;5036814;28;20634;-74
2022/10/04 04:37:36;;;;;;;23.53;14.97;;;10.90;99.90;;;;;;5025338;28;20207;-76
2022/10/04 04:40:23;;;;;;;25.60;16.13;;;10.90;99.90;;;;;;5040585;28;20218;-73
2022/10/04 04:42:51;;;;;;;27.70;15.67;;;10.80;99.90;;;;;;5043720;28;20227;-74
2022/10/04 04:45:24;;;;;;;33.13;17.60;;;10.80;99.90;;;;;;5035650;28;20192;-74
2022/10/04 04:47:55;;;;;;;32.70;17.10;;;10.80;99.90;;;;;;5035618;28;20311;-74
2022/10/04 04:50:31;;;;;;;34.33;17.73;;;10.80;99.90;;;;;;5039174;28;20222;-74
2022/10/04 04:53:35;;;;;;;36.50;18.60;;;10.70;99.90;;;;;;5023709;28;20202;-74
2022/10/04 04:56:05;;;;;;;32.10;17.33;;;10.70;99.90;;;;;;5031366;28;20566;-73
2022/10/04 04:58:46;;;;;;;28.30;17.90;;;10.70;99.90;;;;;;5020156;28;20207;-76
2022/10/04 05:01:34;;;;;;;34.03;19.43;;;10.70;99.90;;;;;;5037675;28;20233;-74
2022/10/04 05:04:12;;;;;;;32.30;19.83;;;10.70;99.90;;;;;;5023627;28;20668;-74
2022/10/04 05:06:42;;;;;;;31.93;18.43;;;10.70;99.90;;;;;;5042607;28;20217;-74
2022/10/04 05:09:28;;;;;;;30.70;18.27;;;10.60;99.90;;;;;;5030489;28;20216;-74
2022/10/04 05:12:02;;;;;;;28.33;17.60;;;10.60;99.90;;;;;;5017763;28;20740;-74
2022/10/04 05:14:30;;;;;;;38.67;19.77;;;10.60;99.90;;;;;;5037200;28;20726;-73
2022/10/04 05:16:57;;;;;;;37.97;20.33;;;10.60;99.90;;;;;;5036192;28;20559;-74
2022/10/04 05:19:30;;;;;;;32.73;18.53;;;10.60;99.90;;;;;;5037324;28;20565;-73
2022/10/04 05:22:06;;;;;;;34.50;19.97;;;10.60;99.90;;;;;;5032521;28;20353;-74
2022/10/04 05:24:38;;;;;;;36.07;20.73;;;10.60;99.90;;;;;;5032400;28;20569;-73
2022/10/04 05:27:24;;;;;;;31.20;21.13;;;10.60;99.90;;;;;;5040080;28;20552;-74
2022/10/04 05:30:04;;;;;;;37.03;21.00;;;10.60;99.90;;;;;;5022304;28;20232;-74
2022/10/04 05:32:58;;;;;;;34.67;19.47;;;10.60;99.90;;;;;;5032953;28;21472;-74
2022/10/04 05:35:26;;;;;;;34.27;20.13;;;10.60;99.90;;;;;;5035633;28;20210;-74
2022/10/04 05:37:56;;;;;;;43.57;23.40;;;10.60;99.90;;;;;;5032774;28;20208;-74
2022/10/04 05:40:33;;;;;;;38.10;21.83;;;10.50;99.90;;;;;;5040319;28;20233;-75
2022/10/04 05:43:00;;;;;;;44.07;21.97;;;10.50;99.90;;;;;;5038455;28;20292;-75
2022/10/04 05:45:30;;;;;;;36.63;22.77;;;10.50;99.90;;;;;;5041063;28;20301;-74
2022/10/04 05:47:59;;;;;;;45.53;25.27;;;10.50;99.90;;;;;;5040750;28;20221;-75
2022/10/04 05:50:34;;;;;;;44.70;23.47;;;10.50;99.90;;;;;;5033082;28;20580;-74
2022/10/04 05:53:31;;;;;;;42.60;25.67;;;10.50;99.90;;;;;;5015309;28;20234;-75
2022/10/04 05:56:16;;;;;;;45.97;23.97;;;10.50;99.90;;;;;;5035768;28;20228;-72
2022/10/04 05:59:04;;;;;;;44.37;24.53;;;10.60;99.90;;;;;;5037993;28;20249;-73
2022/10/04 06:01:53;;;;;;;44.37;23.53;;;10.50;99.90;;;;;;5027909;28;20228;-74
2022/10/04 06:04:22;;;;;;;38.90;23.03;;;10.60;99.90;;;;;;5029692;28;20228;-74
2022/10/04 06:06:57;;;;;;;42.73;22.33;;;10.60;99.90;;;;;;5035398;28;20395;-76
2022/10/04 15:31:51;;;;;;;8.98;3.97;;;19.00;99.90;;;;;;5025400;28;20746;-77
2022/10/04 15:34:45;;;;;;;11.30;3.80;;;19.00;99.90;;;;;;5020960;28;20284;-78
2022/10/04 15:37:18;;;;;;;9.48;4.00;;;19.20;99.90;;;;;;5042215;28;20240;-77
2022/10/04 15:40:08;;;;;;;6.78;3.88;;;19.20;99.90;;;;;;5044851;28;20251;-77
2022/10/04 15:42:37;;;;;;;6.60;4.05;;;19.20;99.90;;;;;;5029378;28;20251;-78
2022/10/04 15:45:15;;;;;;;7.95;3.88;;;19.20;99.90;;;;;;5044455;28;20282;-77
2022/10/04 15:48:03;;;;;;;7.50;4.35;;;19.20;99.90;;;;;;5045099;28;20235;-78
2022/10/04 15:50:42;;;;;;;8.73;4.30;;;19.20;99.90;;;;;;5028459;28;20236;-77
2022/10/04 15:53:26;;;;;;;7.55;4.05;;;19.10;99.90;;;;;;5024886;28;20210;-77
2022/10/04 15:56:05;;;;;;;7.43;3.70;;;19.20;99.90;;;;;;5049654;28;20221;-77
2022/10/04 15:58:55;;;;;;;11.23;4.65;;;19.20;99.90;;;;;;5030124;28;20200;-78
2022/10/04 16:02:08;;;;;;;6.30;3.70;;;19.20;99.90;;;;;;5048821;28;20252;-77
2022/10/04 16:04:46;;;;;;;5.85;3.58;;;19.10;99.90;;;;;;5040602;28;20236;-78
2022/10/04 16:07:26;;;;;;;6.47;4.05;;;19.10;99.90;;;;;;5045390;28;20225;-78
2022/10/04 16:10:18;;;;;;;6.78;3.35;;;19.00;99.90;;;;;;5045635;28;20545;-78
2022/10/04 16:13:16;;;;;;;7.05;3.95;;;18.90;99.90;;;;;;5040237;28;20202;-78
2022/10/04 16:15:49;;;;;;;7.43;3.72;;;18.90;99.90;;;;;;5029757;28;20392;-77
2022/10/04 16:18:44;;;;;;;8.15;4.00;;;18.80;99.90;;;;;;5043666;28;20591;-77
2022/10/04 16:21:41;;;;;;;7.57;3.58;;;18.70;99.90;;;;;;5042300;28;20320;-78
2022/10/04 16:24:17;;;;;;;5.93;3.40;;;18.70;99.90;;;;;;5041859;28;20232;-77
2022/10/04 16:26:43;;;;;;;6.57;3.70;;;18.60;99.90;;;;;;5037456;28;20200;-79
2022/10/04 16:29:32;;;;;;;7.55;3.72;;;18.60;99.90;;;;;;5040801;28;20230;-77
2022/10/04 16:32:20;;;;;;;8.00;3.97;;;18.50;99.90;;;;;;5043436;28;20316;-77
2022/10/04 16:34:59;;;;;;;6.60;3.67;;;18.50;99.90;;;;;;5039228;28;20228;-76
2022/10/04 16:37:44;;;;;;;5.47;3.53;;;18.30;99.90;;;;;;5041244;28;20318;-77
2022/10/04 16:40:23;;;;;;;9.80;3.92;;;18.30;99.90;;;;;;5040402;28;20208;-78
2022/10/04 16:43:00;;;;;;;5.35;4.10;;;18.20;99.90;;;;;;5042869;28;20745;-77
2022/10/04 16:45:52;;;;;;;8.98;3.75;;;18.10;99.90;;;;;;5042719;28;20201;-80
2022/10/04 16:48:47;;;;;;;10.10;4.65;;;18.10;99.90;;;;;;5022586;28;20201;-79
2022/10/04 16:51:17;;;;;;;16.05;4.60;;;18.00;99.90;;;;;;5026806;28;20247;-78
2022/10/04 16:54:06;;;;;;;11.77;4.30;;;17.90;99.90;;;;;;5026600;28;20229;-79
2022/10/04 16:56:58;;;;;;;6.03;3.92;;;18.10;99.90;;;;;;5042829;28;20236;-78
2022/10/04 16:59:37;;;;;;;10.55;4.95;;;17.70;99.90;;;;;;5046871;28;20653;-78
2022/10/04 17:02:42;;;;;;;7.30;4.97;;;18.00;99.90;;;;;;5041489;28;20272;-76
2022/10/04 17:05:33;;;;;;;9.13;4.95;;;17.60;99.90;;;;;;5045903;28;20679;-78
2022/10/04 17:08:14;;;;;;;9.63;5.15;;;17.50;99.90;;;;;;5037525;28;20262;-79
2022/10/04 17:10:47;;;;;;;9.93;5.70;;;17.40;99.90;;;;;;5026355;28;20201;-79
2022/10/04 17:13:47;;;;;;;10.98;5.72;;;17.40;99.90;;;;;;5046117;28;20245;-78
2022/10/04 17:16:32;;;;;;;6.30;5.20;;;17.30;99.90;;;;;;5024568;28;20223;-77
2022/10/04 17:19:24;;;;;;;6.50;5.30;;;17.20;99.90;;;;;;5042994;28;20300;-78
2022/10/04 17:22:04;;;;;;;10.43;5.25;;;17.20;99.90;;;;;;5038120;28;20242;-78
2022/10/04 17:25:08;;;;;;;7.82;4.97;;;17.10;99.90;;;;;;5030585;28;20747;-78
2022/10/04 17:27:46;;;;;;;7.65;5.28;;;17.10;99.90;;;;;;5035880;28;20293;-78
2022/10/04 17:30:25;;;;;;;11.77;5.25;;;17.10;99.90;;;;;;5023371;28;20263;-78
2022/10/04 17:33:24;;;;;;;7.80;4.80;;;17.10;99.90;;;;;;5045634;28;20260;-79
2022/10/04 17:36:00;;;;;;;7.93;4.60;;;17.10;99.90;;;;;;5007185;28;20300;-79
2022/10/04 17:38:46;;;;;;;7.68;4.95;;;17.10;99.90;;;;;;5042654;28;20917;-78
2022/10/04 17:41:34;;;;;;;5.90;4.88;;;17.10;99.90;;;;;;5035715;28;20732;-79
2022/10/04 17:44:23;;;;;;;9.18;5.68;;;17.10;99.90;;;;;;5042161;28;20339;-81
2022/10/04 17:56:56;;;;;;;9.57;5.30;;;16.90;99.90;;;;;;5037229;28;20201;-78
2022/10/04 17:59:28;;;;;;;10.13;5.55;;;16.90;99.90;;;;;;5034060;28;20424;-80
2022/10/04 18:02:10;;;;;;;10.07;5.80;;;16.90;99.90;;;;;;5036954;28;20328;-79
2022/10/04 18:04:50;;;;;;;14.05;6.18;;;16.90;99.90;;;;;;5036284;28;20245;-80
2022/10/04 18:07:26;;;;;;;10.85;5.90;;;16.90;99.90;;;;;;5037807;28;20205;-80
2022/10/04 18:09:58;;;;;;;12.07;5.88;;;16.90;99.90;;;;;;5037808;28;20212;-78
2022/10/04 18:12:37;;;;;;;10.27;5.72;;;16.90;99.90;;;;;;5036255;28;20356;-80
2022/10/04 18:15:28;;;;;;;9.48;5.35;;;16.80;99.90;;;;;;5037555;28;20209;-79
2022/10/04 18:18:15;;;;;;;6.97;5.60;;;16.90;99.90;;;;;;5039059;28;20313;-79
2022/10/04 18:21:04;;;;;;;7.90;5.65;;;16.90;99.90;;;;;;5031899;28;20567;-79
2022/10/04 18:23:38;;;;;;;7.97;6.13;;;16.90;99.90;;;;;;5038057;28;20197;-80
2022/10/04 18:26:18;;;;;;;11.57;6.57;;;16.90;99.90;;;;;;5039209;28;20259;-80
2022/10/04 18:28:47;;;;;;;9.30;5.53;;;16.90;99.90;;;;;;5037839;28;20212;-81
2022/10/04 18:31:29;;;;;;;11.90;6.25;;;16.90;99.90;;;;;;5041271;28;20240;-80
2022/10/04 18:34:15;;;;;;;9.82;6.07;;;16.90;99.90;;;;;;5031542;28;20897;-79
2022/10/04 18:37:18;;;;;;;8.30;5.85;;;16.70;99.90;;;;;;5017566;28;20206;-79
2022/10/04 18:39:47;;;;;;;8.50;5.53;;;16.90;99.90;;;;;;5036129;28;20200;-81
2022/10/04 18:42:27;;;;;;;10.70;6.65;;;16.80;99.90;;;;;;5038837;28;20200;-81
2022/10/04 18:44:59;;;;;;;9.27;5.75;;;16.90;99.90;;;;;;5050676;28;20276;-79
2022/10/04 18:47:31;;;;;;;12.77;6.78;;;16.80;99.90;;;;;;5034076;28;20223;-80
2022/10/04 18:50:21;;;;;;;12.30;6.18;;;16.70;99.90;;;;;;5047880;28;20305;-81
2022/10/04 18:52:54;;;;;;;10.70;6.05;;;16.80;99.90;;;;;;5054000;28;20342;-81
2022/10/04 18:55:40;;;;;;;10.77;5.65;;;16.80;99.90;;;;;;5054727;28;20205;-79
2022/10/04 19:04:25;;;;;;;11.52;6.68;;;16.80;99.90;;;;;;5042131;28;20336;-78
2022/10/04 19:06:55;;;;;;;10.50;6.28;;;16.80;99.90;;;;;;5027349;28;20616;-79
2022/10/04 19:09:27;;;;;;;9.77;6.57;;;16.80;99.90;;;;;;5030573;28;20495;-79
2022/10/04 19:12:08;;;;;;;9.25;6.22;;;16.70;99.90;;;;;;5046571;28;20211;-79
2022/10/04 19:14:53;;;;;;;8.23;6.40;;;16.80;99.90;;;;;;5046497;28;20247;-79
2022/10/04 19:17:54;;;;;;;9.57;6.30;;;16.80;99.90;;;;;;5038301;28;20248;-78
2022/10/04 19:20:38;;;;;;;9.75;6.32;;;16.80;99.90;;;;;;5035712;28;20289;-80
2022/10/04 19:23:22;;;;;;;9.07;6.13;;;16.80;99.90;;;;;;5024179;28;20713;-80
2022/10/04 19:26:16;;;;;;;9.05;5.68;;;16.80;99.90;;;;;;5028346;28;20550;-79
2022/10/04 19:29:33;;;;;;;10.48;6.20;;;16.80;99.90;;;;;;5048846;28;20217;-79
2022/10/04 19:32:10;;;;;;;10.15;6.25;;;16.80;99.90;;;;;;5040256;28;20370;-81
2022/10/04 19:34:48;;;;;;;9.20;6.20;;;16.90;99.90;;;;;;5044421;28;20235;-79
2022/10/04 19:37:30;;;;;;;10.63;5.85;;;16.90;99.90;;;;;;5045864;28;20649;-81
2022/10/04 19:40:26;;;;;;;9.45;6.22;;;16.80;99.90;;;;;;5045463;28;20227;-80
2022/10/04 19:42:56;;;;;;;12.02;5.70;;;16.80;99.90;;;;;;5044914;28;20714;-80
2022/10/04 19:45:44;;;;;;;9.68;5.80;;;16.80;99.90;;;;;;5050579;28;20324;-79
2022/10/04 19:48:19;;;;;;;11.73;6.10;;;16.80;99.90;;;;;;5046303;28;20228;-79
2022/10/04 19:51:00;;;;;;;10.93;5.88;;;16.80;99.90;;;;;;5046162;28;20197;-79
2022/10/04 19:53:36;;;;;;;8.40;5.78;;;16.90;99.90;;;;;;5046641;28;20266;-79
2022/10/04 19:56:08;;;;;;;10.05;6.38;;;16.80;99.90;;;;;;5028086;28;20223;-79
2022/10/04 19:58:44;;;;;;;11.15;6.15;;;16.80;99.90;;;;;;5043527;28;20239;-79
2022/10/04 20:01:16;;;;;;;9.05;5.53;;;16.80;99.90;;;;;;5039982;28;20301;-79
2022/10/04 20:03:44;;;;;;;8.57;6.10;;;16.80;99.90;;;;;;5028544;28;20209;-79
2022/10/04 20:06:24;;;;;;;9.90;5.57;;;16.80;99.90;;;;;;5026299;28;20299;-78
2022/10/04 20:08:56;;;;;;;11.02;6.07;;;16.80;99.90;;;;;;5034887;28;20724;-77
2022/10/04 20:11:50;;;;;;;10.27;5.80;;;16.80;99.90;;;;;;5041890;28;20220;-79
2022/10/04 20:14:22;;;;;;;8.52;5.60;;;16.80;99.90;;;;;;5045913;28;20239;-78
2022/10/04 20:16:48;;;;;;;10.30;5.60;;;16.90;99.90;;;;;;5049671;28;20313;-79
2022/10/04 20:19:28;;;;;;;11.23;5.80;;;17.00;99.90;;;;;;5050088;28;20207;-79
2022/10/04 20:22:11;;;;;;;10.50;5.80;;;16.90;99.90;;;;;;5047177;28;20209;-79
2022/10/04 20:24:38;;;;;;;9.05;5.25;;;16.90;99.90;;;;;;5048723;28;20225;-78
2022/10/04 20:27:25;;;;;;;11.75;6.63;;;16.90;99.90;;;;;;5049930;28;20233;-81
2022/10/04 20:29:55;;;;;;;8.68;5.78;;;16.90;99.90;;;;;;5040016;28;20259;-79
2022/10/04 20:32:26;;;;;;;10.52;6.10;;;16.90;99.90;;;;;;5027426;28;20228;-78
2022/10/04 20:34:54;;;;;;;10.05;5.60;;;17.00;99.90;;;;;;5022237;28;20677;-81
2022/10/04 20:38:04;;;;;;;8.18;5.35;;;17.00;99.90;;;;;;5006754;28;20272;-79
2022/10/04 20:40:51;;;;;;;11.50;5.47;;;17.00;99.90;;;;;;5047699;28;20203;-80
2022/10/04 20:43:18;;;;;;;13.18;5.30;;;16.90;99.90;;;;;;5055014;28;20296;-79
2022/10/04 20:45:47;;;;;;;8.55;5.53;;;16.90;99.90;;;;;;5033594;28;20364;-79
2022/10/04 20:48:23;;;;;;;7.70;5.43;;;17.00;99.90;;;;;;5027487;28;20206;-80
2022/10/04 20:50:51;;;;;;;8.65;5.63;;;17.00;99.90;;;;;;5024034;28;20684;-79
2022/10/04 20:53:24;;;;;;;10.07;6.00;;;17.00;99.90;;;;;;5042788;28;20284;-79
2022/10/04 20:56:10;;;;;;;9.98;5.60;;;17.10;99.90;;;;;;5037339;28;20247;-78
2022/10/04 20:58:39;;;;;;;9.60;5.97;;;17.00;99.90;;;;;;5036860;28;20554;-80
2022/10/04 21:04:40;;;;;;;9.02;5.63;;;17.00;99.90;;;;;;5043946;28;20267;-79
2022/10/04 21:07:22;;;;;;;10.18;6.10;;;17.00;99.90;;;;;;5046776;28;20212;-79
2022/10/04 21:09:52;;;;;;;12.85;6.32;;;16.90;99.90;;;;;;5046033;28;20308;-79
2022/10/04 21:12:33;;;;;;;10.23;6.15;;;17.00;99.90;;;;;;5039719;28;20218;-79
2022/10/04 21:15:05;;;;;;;10.13;6.45;;;16.90;99.90;;;;;;5045332;28;20292;-80
2022/10/04 21:17:35;;;;;;;8.13;5.60;;;16.90;99.90;;;;;;5019657;28;20222;-81
2022/10/04 21:20:03;;;;;;;9.40;5.85;;;16.90;99.90;;;;;;5024290;28;20233;-78
2022/10/04 21:22:32;;;;;;;10.35;5.97;;;17.00;99.90;;;;;;5030385;28;20229;-79
2022/10/04 21:25:24;;;;;;;8.75;5.82;;;16.90;99.90;;;;;;5026980;28;20328;-80
2022/10/04 21:27:51;;;;;;;11.60;5.95;;;16.90;99.90;;;;;;5037442;28;20209;-78
2022/10/04 21:30:19;;;;;;;11.68;7.00;;;16.90;99.90;;;;;;5043297;28;20208;-79
2022/10/04 21:32:46;;;;;;;8.48;6.10;;;16.90;99.90;;;;;;5035211;28;20233;-79
2022/10/04 21:35:13;;;;;;;10.90;6.18;;;16.90;99.90;;;;;;5037398;28;20193;-77
2022/10/04 21:37:40;;;;;;;11.63;6.43;;;16.90;99.90;;;;;;5039354;28;20293;-80
2022/10/04 21:40:08;;;;;;;8.25;6.25;;;16.90;99.90;;;;;;5021044;28;20209;-81
2022/10/04 21:42:35;;;;;;;9.95;6.63;;;16.90;99.90;;;;;;5027366;28;20245;-79
2022/10/04 21:45:02;;;;;;;10.85;6.63;;;16.90;99.90;;;;;;5042461;28;20316;-79
2022/10/04 21:47:29;;;;;;;9.85;5.95;;;16.90;99.90;;;;;;5039702;28;20213;-81
2022/10/04 21:49:56;;;;;;;14.10;7.30;;;16.90;99.90;;;;;;5034400;28;20202;-81
2022/10/04 21:52:24;;;;;;;11.15;6.25;;;16.90;99.90;;;;;;5038357;28;20205;-81
2022/10/04 21:54:51;;;;;;;9.07;6.45;;;16.80;99.90;;;;;;5040680;28;20228;-80
2022/10/04 21:57:18;;;;;;;12.13;6.47;;;16.80;99.90;;;;;;5045653;28;20228;-80
2022/10/04 21:59:46;;;;;;;11.13;6.68;;;16.80;99.90;;;;;;5036315;28;20202;-80
2022/10/04 22:02:14;;;;;;;12.13;5.88;;;16.80;99.90;;;;;;5036419;28;20255;-78
2022/10/04 22:04:41;;;;;;;11.73;6.50;;;16.80;99.90;;;;;;5039416;28;20279;-79
2022/10/04 22:07:09;;;;;;;11.00;6.45;;;16.80;99.90;;;;;;5037195;28;20669;-80
2022/10/04 22:09:36;;;;;;;8.93;6.32;;;16.80;99.90;;;;;;5040543;28;20205;-79
2022/10/04 22:12:03;;;;;;;10.15;5.97;;;16.80;99.90;;;;;;5042534;28;20273;-80
2022/10/04 22:14:30;;;;;;;9.48;7.10;;;16.80;99.90;;;;;;5023324;28;20205;-81
2022/10/04 22:16:59;;;;;;;14.35;6.85;;;16.80;99.90;;;;;;5036184;28;20334;-79
2022/10/04 22:19:26;;;;;;;9.55;6.40;;;16.80;99.90;;;;;;5017625;28;20607;-80
2022/10/04 22:21:54;;;;;;;12.77;6.72;;;16.80;99.90;;;;;;5038439;28;20209;-81
2022/10/04 22:24:21;;;;;;;14.50;7.20;;;16.80;99.90;;;;;;5043374;28;20252;-78
2022/10/04 22:26:50;;;;;;;12.13;6.75;;;16.90;99.90;;;;;;5041836;28;20351;-80
2022/10/04 22:29:20;;;;;;;11.35;6.78;;;16.80;99.90;;;;;;5035082;28;20221;-80
2022/10/04 22:31:51;;;;;;;11.18;7.18;;;16.80;99.90;;;;;;5023028;28;20272;-77
2022/10/04 22:34:21;;;;;;;13.37;7.53;;;16.80;99.90;;;;;;5016354;28;20209;-79
2022/10/04 22:36:51;;;;;;;12.75;7.95;;;16.70;99.90;;;;;;5018287;28;20205;-78
2022/10/04 22:39:19;;;;;;;11.32;6.68;;;16.80;99.90;;;;;;5034415;28;20205;-79
2022/10/04 22:41:58;;;;;;;12.00;7.78;;;16.80;99.90;;;;;;5020008;28;20212;-78
2022/10/04 22:44:37;;;;;;;11.32;7.00;;;16.80;99.90;;;;;;5017247;28;20216;-79
2022/10/04 22:47:11;;;;;;;12.00;7.20;;;16.70;99.90;;;;;;5025558;28;20248;-79
2022/10/04 22:49:40;;;;;;;13.48;7.45;;;16.70;99.90;;;;;;5043476;28;20344;-80
2022/10/04 22:52:15;;;;;;;13.95;6.97;;;16.70;99.90;;;;;;5044069;28;20209;-79
2022/10/04 22:54:45;;;;;;;11.77;7.00;;;16.80;99.90;;;;;;5042521;28;20284;-78
2022/10/04 22:57:14;;;;;;;10.75;7.07;;;16.70;99.90;;;;;;5045529;28;20284;-78
2022/10/04 22:59:49;;;;;;;9.27;6.78;;;16.80;99.90;;;;;;5042455;28;20206;-79
2022/10/04 23:02:25;;;;;;;12.30;7.30;;;16.80;99.90;;;;;;5040535;28;20322;-79
2022/10/04 23:05:14;;;;;;;11.85;7.15;;;16.80;99.90;;;;;;5028720;28;20300;-79
2022/10/04 23:07:42;;;;;;;10.80;6.68;;;16.80;99.90;;;;;;5040777;28;20205;-80
2022/10/04 23:10:11;;;;;;;7.78;6.15;;;16.80;99.90;;;;;;5039986;28;20309;-80
2022/10/04 23:12:39;;;;;;;12.95;6.65;;;16.80;99.90;;;;;;5041969;28;20293;-78